Time;durP1;ratioP1;P1;durP2;ratioP2;P2;SDS_P1;SDS_P2;PMS_P1;PMS_P2;Temp;Humidity;BMP_temperature;BMP_pressure;BME280_temperature;BME280_humidity;BME280_pressure;Samples;Min_cycle;Max_cycle;Signal;HPM_P1;HPM_P2
2023/06/29 00:01:26;;;;;;;10.68;4.10;;;19.60;99.90;;;;;;5023002;28;20307;-73
2023/06/29 00:03:52;;;;;;;7.32;3.83;;;19.50;99.90;;;;;;5020390;28;20295;-72
2023/06/29 00:06:18;;;;;;;6.80;4.28;;;19.60;99.90;;;;;;5021465;28;20234;-73
2023/06/29 00:08:43;;;;;;;13.45;7.63;;;19.50;99.90;;;;;;5020853;28;20200;-73
2023/06/29 00:11:09;;;;;;;7.45;5.28;;;19.60;99.90;;;;;;5022643;28;20673;-73
2023/06/29 00:13:35;;;;;;;9.85;5.10;;;19.50;99.90;;;;;;5029304;28;20204;-73
2023/06/29 00:16:00;;;;;;;8.05;3.75;;;19.50;99.90;;;;;;5028368;28;20245;-73
2023/06/29 00:18:30;;;;;;;5.68;3.13;;;19.50;99.90;;;;;;5024763;28;20240;-74
2023/06/29 00:20:57;;;;;;;8.18;3.30;;;19.50;99.90;;;;;;5024981;28;20277;-73
2023/06/29 00:23:24;;;;;;;6.75;3.33;;;19.40;99.90;;;;;;5022730;28;20181;-74
2023/06/29 00:25:52;;;;;;;5.15;3.00;;;19.40;99.90;;;;;;5024234;28;20212;-75
2023/06/29 00:28:18;;;;;;;9.13;3.28;;;19.30;99.90;;;;;;5022257;28;20300;-73
2023/06/29 00:30:43;;;;;;;6.47;3.10;;;19.30;99.90;;;;;;5024253;28;20451;-74
2023/06/29 00:33:09;;;;;;;6.18;2.88;;;19.30;99.90;;;;;;5022785;28;20221;-74
2023/06/29 00:35:35;;;;;;;4.93;2.92;;;19.30;99.90;;;;;;5023343;28;20180;-74
2023/06/29 00:38:00;;;;;;;6.95;3.72;;;19.20;99.90;;;;;;5023438;28;20536;-72
2023/06/29 00:40:26;;;;;;;5.28;3.53;;;19.20;99.90;;;;;;5023819;28;20204;-74
2023/06/29 00:42:52;;;;;;;5.55;3.47;;;19.20;99.90;;;;;;5024758;28;20240;-74
2023/06/29 00:45:18;;;;;;;4.25;2.72;;;19.20;99.90;;;;;;5031370;28;20227;-74
2023/06/29 00:47:44;;;;;;;6.43;3.05;;;19.20;99.90;;;;;;5023266;28;20213;-74
2023/06/29 00:50:10;;;;;;;5.85;3.10;;;19.20;99.90;;;;;;5030310;28;20274;-74
2023/06/29 00:52:36;;;;;;;4.93;2.85;;;19.10;99.90;;;;;;5032968;28;20299;-74
2023/06/29 00:55:02;;;;;;;5.13;3.22;;;19.10;99.90;;;;;;5029268;28;20495;-74
2023/06/29 00:57:29;;;;;;;4.75;3.08;;;19.10;99.90;;;;;;5024701;28;20214;-74
2023/06/29 00:59:59;;;;;;;4.65;2.90;;;19.20;99.90;;;;;;5031300;28;20216;-74
2023/06/29 01:02:25;;;;;;;9.25;3.30;;;19.10;99.90;;;;;;5029780;28;20714;-74
2023/06/29 01:04:51;;;;;;;5.15;2.83;;;19.20;99.90;;;;;;5030414;28;20212;-74
2023/06/29 01:07:30;;;;;;;6.95;3.35;;;19.20;99.90;;;;;;5025322;28;20216;-74
2023/06/29 01:09:58;;;;;;;5.25;3.38;;;19.20;99.90;;;;;;5040483;28;20290;-74
2023/06/29 01:12:24;;;;;;;5.03;2.92;;;19.20;99.90;;;;;;5027284;28;20219;-75
2023/06/29 01:14:51;;;;;;;5.95;3.40;;;19.10;99.90;;;;;;5025672;28;20638;-74
2023/06/29 01:17:20;;;;;;;5.93;2.95;;;19.10;99.90;;;;;;5023382;28;20183;-75
2023/06/29 01:19:48;;;;;;;5.63;3.05;;;19.20;99.90;;;;;;5025240;28;20232;-74
2023/06/29 01:22:37;;;;;;;4.50;3.25;;;19.10;99.90;;;;;;5022329;28;20213;-74
2023/06/29 01:25:02;;;;;;;5.75;3.03;;;19.10;99.90;;;;;;5017275;28;20216;-74
2023/06/29 01:27:29;;;;;;;4.60;2.95;;;19.10;99.90;;;;;;5025107;28;20209;-75
2023/06/29 01:29:55;;;;;;;7.00;3.60;;;19.10;99.90;;;;;;5027296;28;20585;-75
2023/06/29 01:32:35;;;;;;;4.53;3.28;;;19.10;99.90;;;;;;5031676;28;20201;-74
2023/06/29 01:35:02;;;;;;;4.25;3.10;;;19.00;99.90;;;;;;5024345;28;20220;-73
2023/06/29 01:37:49;;;;;;;4.40;2.92;;;19.00;99.90;;;;;;5029900;28;20207;-74
2023/06/29 01:40:19;;;;;;;5.93;3.45;;;19.00;99.90;;;;;;5028735;28;20278;-74
2023/06/29 01:42:47;;;;;;;6.15;3.17;;;19.00;99.90;;;;;;5029523;28;20965;-74
2023/06/29 01:45:14;;;;;;;5.28;3.08;;;19.00;99.90;;;;;;5019611;28;20904;-73
2023/06/29 01:47:40;;;;;;;7.28;3.35;;;18.90;99.90;;;;;;5025026;28;20181;-74
2023/06/29 01:50:06;;;;;;;3.50;2.75;;;18.90;99.90;;;;;;5023822;28;20222;-71
2023/06/29 01:52:32;;;;;;;6.82;3.17;;;18.90;99.90;;;;;;5027177;28;20310;-74
2023/06/29 01:54:58;;;;;;;4.95;3.58;;;18.80;99.90;;;;;;5022936;28;20336;-72
2023/06/29 01:57:23;;;;;;;7.18;3.22;;;18.90;99.90;;;;;;5022346;28;20678;-73
2023/06/29 01:59:49;;;;;;;5.60;3.60;;;18.80;99.90;;;;;;5024130;28;20246;-74
2023/06/29 02:02:14;;;;;;;4.57;3.10;;;18.80;99.90;;;;;;5028922;28;20201;-74
2023/06/29 02:04:40;;;;;;;4.88;3.17;;;18.80;99.90;;;;;;5023405;28;20270;-73
2023/06/29 02:07:06;;;;;;;3.30;3.00;;;18.80;99.90;;;;;;5020672;28;20642;-73
2023/06/29 02:09:31;;;;;;;5.35;3.50;;;18.80;99.90;;;;;;5023870;28;20295;-74
2023/06/29 02:11:57;;;;;;;8.23;3.47;;;18.80;99.90;;;;;;5025759;28;20770;-74
2023/06/29 02:14:23;;;;;;;4.45;3.15;;;18.70;99.90;;;;;;5024175;28;20193;-74
2023/06/29 02:16:50;;;;;;;4.68;3.63;;;18.80;99.90;;;;;;5029256;28;20238;-73
2023/06/29 02:19:16;;;;;;;4.35;3.58;;;18.80;99.90;;;;;;5027464;28;20216;-74
2023/06/29 02:21:41;;;;;;;6.65;3.60;;;18.70;99.90;;;;;;5030335;28;20234;-74
2023/06/29 02:24:07;;;;;;;4.38;3.20;;;18.70;99.90;;;;;;5022554;28;20247;-72
2023/06/29 02:26:33;;;;;;;8.52;3.88;;;18.70;99.90;;;;;;5023374;28;20199;-74
2023/06/29 02:28:58;;;;;;;4.10;3.63;;;18.70;99.90;;;;;;5022477;28;20173;-73
2023/06/29 02:31:24;;;;;;;5.55;3.67;;;18.70;99.90;;;;;;5024524;28;20307;-74
2023/06/29 02:33:51;;;;;;;5.45;3.65;;;18.70;99.90;;;;;;5023769;28;20223;-72
2023/06/29 02:36:20;;;;;;;5.60;3.47;;;18.70;99.90;;;;;;5020586;28;20212;-74
2023/06/29 02:38:46;;;;;;;6.95;3.65;;;18.70;99.90;;;;;;5024150;28;20208;-74
2023/06/29 02:41:12;;;;;;;7.93;3.92;;;18.60;99.90;;;;;;5020702;28;20687;-75
2023/06/29 02:43:38;;;;;;;4.88;3.63;;;18.70;99.90;;;;;;5017300;28;20211;-72
2023/06/29 02:46:03;;;;;;;6.63;3.63;;;18.60;99.90;;;;;;5004587;28;20212;-74
2023/06/29 02:48:29;;;;;;;8.10;4.10;;;18.50;99.90;;;;;;5019281;28;20276;-74
2023/06/29 02:50:55;;;;;;;6.13;3.60;;;18.60;99.90;;;;;;5017838;28;20216;-73
2023/06/29 02:53:20;;;;;;;6.43;4.15;;;18.50;99.90;;;;;;5020610;28;20328;-75
2023/06/29 02:55:46;;;;;;;8.20;3.80;;;18.60;99.90;;;;;;5019986;28;20216;-74
2023/06/29 02:58:12;;;;;;;7.60;4.07;;;18.50;99.90;;;;;;5018866;28;20204;-75
2023/06/29 03:00:37;;;;;;;4.28;3.72;;;18.50;99.90;;;;;;5022451;28;20334;-75
2023/06/29 03:03:03;;;;;;;6.40;4.00;;;18.60;99.90;;;;;;5021628;28;20216;-74
2023/06/29 03:05:28;;;;;;;7.32;3.72;;;18.60;99.90;;;;;;5020706;28;20209;-74
2023/06/29 03:07:54;;;;;;;5.13;4.05;;;18.60;99.90;;;;;;5022093;28;20188;-75
2023/06/29 03:10:20;;;;;;;8.45;3.75;;;18.60;99.90;;;;;;5018961;28;20213;-74
2023/06/29 03:12:45;;;;;;;8.15;4.28;;;18.70;99.90;;;;;;5022627;28;20220;-74
2023/06/29 03:15:11;;;;;;;8.23;4.03;;;18.70;99.90;;;;;;5017900;28;20209;-72
2023/06/29 03:17:37;;;;;;;5.57;4.10;;;18.70;99.90;;;;;;5022663;28;20602;-73
2023/06/29 03:20:03;;;;;;;5.72;3.47;;;18.80;99.90;;;;;;5019371;28;20627;-74
2023/06/29 03:22:29;;;;;;;5.55;2.95;;;18.80;99.90;;;;;;5020994;28;20212;-74
2023/06/29 03:24:54;;;;;;;5.68;3.67;;;18.90;99.90;;;;;;5016736;28;20216;-74
2023/06/29 03:27:20;;;;;;;4.95;3.50;;;19.00;99.90;;;;;;5027925;28;20725;-74
2023/06/29 03:29:51;;;;;;;3.72;3.40;;;19.60;99.90;;;;;;5014792;28;20217;-74
2023/06/29 03:32:16;;;;;;;7.88;3.95;;;20.30;99.90;;;;;;5024065;28;20200;-74
2023/06/29 03:34:42;;;;;;;6.85;3.40;;;20.80;99.90;;;;;;5019834;28;20781;-74
2023/06/29 03:37:08;;;;;;;6.97;3.78;;;21.50;99.90;;;;;;5021155;28;20281;-74
2023/06/29 03:39:33;;;;;;;5.40;3.22;;;21.90;99.90;;;;;;5021524;28;20212;-74
2023/06/29 03:41:59;;;;;;;4.13;3.13;;;22.00;99.90;;;;;;5020305;28;20382;-72
2023/06/29 03:44:24;;;;;;;8.05;3.55;;;22.10;99.90;;;;;;5019117;28;20207;-74
2023/06/29 03:46:51;;;;;;;7.55;3.53;;;22.10;99.90;;;;;;5019167;28;20203;-74
2023/06/29 03:49:16;;;;;;;4.00;3.35;;;22.00;99.90;;;;;;5019669;28;20367;-74
2023/06/29 03:51:42;;;;;;;6.47;3.83;;;22.30;99.90;;;;;;5022429;28;20231;-74
2023/06/29 03:54:07;;;;;;;4.60;3.30;;;22.50;99.90;;;;;;5018765;28;20825;-73
2023/06/29 03:56:33;;;;;;;5.35;3.25;;;22.70;99.90;;;;;;5026301;28;20173;-75
2023/06/29 03:58:59;;;;;;;3.45;2.80;;;22.90;99.90;;;;;;5019071;28;20183;-73
2023/06/29 04:01:24;;;;;;;4.70;3.25;;;23.70;99.90;;;;;;5019101;28;20318;-75
2023/06/29 04:03:50;;;;;;;2.97;2.53;;;24.60;99.90;;;;;;5020764;28;20208;-72
2023/06/29 04:06:16;;;;;;;4.43;2.85;;;25.30;99.90;;;;;;5017012;28;20226;-75
2023/06/29 04:08:42;;;;;;;5.80;3.13;;;26.10;99.90;;;;;;5017791;28;20189;-75
2023/06/29 04:11:09;;;;;;;5.82;3.00;;;26.10;99.90;;;;;;5016292;28;20199;-74
2023/06/29 04:13:34;;;;;;;3.30;2.88;;;25.50;99.90;;;;;;5024401;28;20220;-75
2023/06/29 04:16:00;;;;;;;5.95;2.70;;;24.80;99.90;;;;;;5016725;28;20204;-73
2023/06/29 04:18:26;;;;;;;4.03;3.00;;;24.00;99.90;;;;;;5021953;28;20212;-75
2023/06/29 04:20:53;;;;;;;4.18;3.20;;;23.50;99.90;;;;;;5023993;28;20214;-75
2023/06/29 04:23:18;;;;;;;5.80;3.17;;;22.80;99.90;;;;;;5025716;28;20184;-75
2023/06/29 04:25:44;;;;;;;6.95;3.40;;;22.30;99.90;;;;;;5027055;28;20212;-75
2023/06/29 04:28:12;;;;;;;7.25;3.15;;;21.80;99.90;;;;;;5022033;28;20254;-75
2023/06/29 04:30:41;;;;;;;5.10;3.08;;;21.70;99.90;;;;;;5025053;28;20201;-76
2023/06/29 04:33:10;;;;;;;4.45;2.95;;;21.60;99.90;;;;;;5026283;28;20803;-75
2023/06/29 04:35:41;;;;;;;5.15;3.38;;;21.80;99.90;;;;;;5019685;28;20193;-75
2023/06/29 04:38:10;;;;;;;4.47;3.10;;;23.90;99.90;;;;;;5029516;28;20265;-75
2023/06/29 04:40:40;;;;;;;4.95;2.78;;;24.90;99.90;;;;;;5012273;28;20327;-76
2023/06/29 04:43:06;;;;;;;3.45;2.55;;;26.20;99.90;;;;;;5015327;28;20225;-76
2023/06/29 04:45:32;;;;;;;4.25;2.55;;;27.30;99.90;;;;;;5020866;28;20224;-75
2023/06/29 04:47:59;;;;;;;4.88;2.88;;;28.20;99.90;;;;;;5022016;28;20219;-74
2023/06/29 04:50:25;;;;;;;3.55;2.92;;;27.20;99.90;;;;;;5024287;28;20215;-76
2023/06/29 04:52:55;;;;;;;4.55;2.80;;;28.20;99.90;;;;;;5030006;28;20602;-76
2023/06/29 04:55:22;;;;;;;4.80;2.80;;;29.50;99.90;;;;;;5020917;28;20205;-73
2023/06/29 04:57:47;;;;;;;4.57;2.67;;;30.20;99.90;;;;;;5026263;28;20236;-77
2023/06/29 05:00:14;;;;;;;4.68;2.40;;;31.00;99.90;;;;;;5027696;28;20216;-76
2023/06/29 05:02:41;;;;;;;4.03;2.40;;;31.10;99.90;;;;;;5023671;28;20204;-76
2023/06/29 05:05:07;;;;;;;6.45;2.78;;;31.90;99.90;;;;;;5014922;28;20224;-76
2023/06/29 05:07:34;;;;;;;4.13;2.58;;;32.50;99.90;;;;;;5018879;28;20649;-74
2023/06/29 05:10:00;;;;;;;3.17;2.65;;;32.70;99.90;;;;;;5019483;28;20208;-75
2023/06/29 05:12:26;;;;;;;3.70;2.45;;;33.10;99.90;;;;;;5018448;28;20219;-75
2023/06/29 05:14:51;;;;;;;3.67;2.42;;;33.40;99.90;;;;;;5014912;28;20200;-75
2023/06/29 05:17:19;;;;;;;3.45;2.85;;;31.50;99.90;;;;;;5019000;28;20690;-76
2023/06/29 05:19:45;;;;;;;4.47;2.30;;;29.80;99.90;;;;;;5023054;28;20274;-76
2023/06/29 05:22:11;;;;;;;5.32;2.80;;;28.50;99.90;;;;;;5026883;28;20204;-75
2023/06/29 05:24:37;;;;;;;5.75;2.80;;;27.70;99.90;;;;;;5043875;22;20263;-76
2023/06/29 05:27:04;;;;;;;4.18;2.38;;;27.20;99.90;;;;;;5034545;28;20212;-75
2023/06/29 05:29:29;;;;;;;5.22;2.55;;;27.40;99.90;;;;;;5040526;28;20180;-75
2023/06/29 05:31:55;;;;;;;5.88;2.75;;;28.00;99.90;;;;;;5036325;28;20258;-75
2023/06/29 05:34:21;;;;;;;7.00;2.83;;;28.30;99.90;;;;;;5031809;28;20223;-74
2023/06/29 05:36:46;;;;;;;4.25;2.50;;;28.60;99.90;;;;;;5027286;28;20713;-75
2023/06/29 05:39:12;;;;;;;5.15;2.35;;;28.80;99.90;;;;;;5025362;28;20215;-74
2023/06/29 05:41:38;;;;;;;3.33;2.58;;;28.70;99.90;;;;;;5024197;28;20176;-74
2023/06/29 05:44:06;;;;;;;4.63;2.63;;;28.10;99.90;;;;;;5027957;28;20172;-72
2023/06/29 05:46:33;;;;;;;9.93;5.18;;;27.70;99.90;;;;;;5022732;28;20703;-75
2023/06/29 05:48:59;;;;;;;10.55;7.95;;;27.40;99.90;;;;;;5028373;28;20204;-74
2023/06/29 05:51:25;;;;;;;9.27;4.45;;;27.20;99.90;;;;;;5028233;28;20654;-74
2023/06/29 05:53:50;;;;;;;9.77;6.47;;;27.40;99.90;;;;;;5032398;28;20295;-73
2023/06/29 05:56:16;;;;;;;7.35;4.78;;;28.30;99.90;;;;;;5025115;28;20275;-75
2023/06/29 05:58:42;;;;;;;8.27;7.05;;;28.10;99.90;;;;;;5030829;28;20294;-74
2023/06/29 06:01:07;;;;;;;9.75;5.03;;;29.20;99.90;;;;;;5030559;28;20211;-75
2023/06/29 06:03:33;;;;;;;3.70;2.67;;;30.00;99.90;;;;;;5023264;28;20208;-75
2023/06/29 06:05:59;;;;;;;3.20;2.90;;;31.50;99.90;;;;;;5025478;28;20274;-75
2023/06/29 06:08:24;;;;;;;6.78;3.38;;;32.70;99.90;;;;;;5023699;28;20218;-77
2023/06/29 06:10:50;;;;;;;5.38;3.60;;;33.60;99.50;;;;;;5029933;28;20211;-75
2023/06/29 06:13:16;;;;;;;6.25;4.07;;;34.20;97.20;;;;;;5028670;28;20212;-75
2023/06/29 06:15:41;;;;;;;6.28;2.97;;;34.00;97.00;;;;;;5029833;28;20691;-75
2023/06/29 06:18:07;;;;;;;5.85;2.53;;;33.10;96.10;;;;;;5024115;28;20212;-75
2023/06/29 06:20:33;;;;;;;5.00;2.67;;;31.90;97.30;;;;;;5019261;28;20234;-75
2023/06/29 06:22:58;;;;;;;5.80;2.42;;;31.60;98.60;;;;;;5027164;28;20184;-74
2023/06/29 06:25:24;;;;;;;5.25;2.33;;;32.50;97.80;;;;;;5024116;28;20221;-75
2023/06/29 06:27:50;;;;;;;5.88;2.33;;;33.60;96.80;;;;;;5027299;28;20204;-76
2023/06/29 06:30:15;;;;;;;4.57;2.65;;;34.60;94.70;;;;;;5028526;28;20223;-75
2023/06/29 06:32:44;;;;;;;9.05;8.02;;;35.30;93.20;;;;;;5031201;28;20378;-76
2023/06/29 06:35:10;;;;;;;8.50;5.20;;;35.60;91.70;;;;;;5012866;28;20269;-73
2023/06/29 06:37:37;;;;;;;9.77;8.35;;;34.90;91.30;;;;;;5026083;28;20615;-75
2023/06/29 06:40:12;;;;;;;10.45;7.03;;;34.00;92.20;;;;;;5023605;28;20214;-77
2023/06/29 06:42:39;;;;;;;12.27;8.98;;;33.20;93.20;;;;;;5023726;28;20215;-78
2023/06/29 06:45:05;;;;;;;7.20;3.60;;;32.30;94.70;;;;;;5031655;28;20736;-75
2023/06/29 06:47:33;;;;;;;26.63;20.38;;;31.50;95.40;;;;;;5016250;28;20173;-75
2023/06/29 06:50:02;;;;;;;13.38;10.65;;;30.90;96.30;;;;;;5020852;28;20177;-75
2023/06/29 06:52:28;;;;;;;6.35;3.80;;;30.60;96.20;;;;;;5026756;28;20307;-74
2023/06/29 06:54:55;;;;;;;4.20;2.50;;;30.10;96.10;;;;;;5026087;28;20648;-76
2023/06/29 06:57:23;;;;;;;6.78;2.50;;;29.50;97.10;;;;;;5029262;28;20215;-75
2023/06/29 06:59:49;;;;;;;4.78;2.33;;;29.20;97.60;;;;;;5023486;28;20625;-75
2023/06/29 07:02:15;;;;;;;5.63;2.95;;;28.70;98.80;;;;;;5020609;28;20659;-74
2023/06/29 07:04:40;;;;;;;7.43;2.65;;;28.30;99.90;;;;;;5022613;28;20220;-75
2023/06/29 07:07:08;;;;;;;6.47;1.95;;;27.70;99.90;;;;;;5022184;28;20206;-75
2023/06/29 07:09:34;;;;;;;3.50;2.33;;;27.50;99.90;;;;;;5020932;28;20200;-76
2023/06/29 07:12:00;;;;;;;4.18;2.65;;;27.30;99.90;;;;;;5021180;28;20244;-75
2023/06/29 07:14:26;;;;;;;25.38;19.17;;;26.90;99.90;;;;;;5027645;28;20667;-73
2023/06/29 07:16:52;;;;;;;14.73;8.93;;;26.40;99.90;;;;;;5023933;28;20248;-75
2023/06/29 07:19:17;;;;;;;35.95;25.40;;;26.20;99.90;;;;;;5027483;28;20707;-75
2023/06/29 07:21:43;;;;;;;8.75;5.60;;;26.00;99.90;;;;;;5025001;28;20215;-75
2023/06/29 07:24:10;;;;;;;21.27;10.75;;;25.90;99.90;;;;;;5019485;28;20221;-73
2023/06/29 07:26:36;;;;;;;5.38;3.38;;;25.70;99.90;;;;;;5019040;28;20549;-77
2023/06/29 07:29:04;;;;;;;8.13;4.28;;;25.40;99.90;;;;;;5019399;28;20184;-74
2023/06/29 07:31:29;;;;;;;7.22;3.00;;;25.20;99.90;;;;;;5026913;28;20204;-75
2023/06/29 07:33:55;;;;;;;5.25;2.97;;;25.00;99.90;;;;;;5026308;28;20204;-76
2023/06/29 07:36:23;;;;;;;7.38;3.05;;;25.10;99.90;;;;;;5025484;28;20287;-76
2023/06/29 07:38:49;;;;;;;4.25;2.17;;;25.00;99.90;;;;;;5022226;28;20212;-75
2023/06/29 07:41:15;;;;;;;3.97;2.35;;;24.90;99.90;;;;;;5021785;28;20179;-75
2023/06/29 07:43:42;;;;;;;4.60;3.08;;;25.00;99.90;;;;;;5021460;28;20204;-75
2023/06/29 07:46:07;;;;;;;18.20;13.85;;;25.10;99.90;;;;;;5017010;28;20213;-75
2023/06/29 07:48:33;;;;;;;26.10;17.90;;;25.00;99.90;;;;;;5021261;28;20220;-74
2023/06/29 07:50:59;;;;;;;21.63;12.00;;;25.10;99.90;;;;;;5022837;28;20211;-77
2023/06/29 07:53:24;;;;;;;5.95;3.95;;;25.10;99.90;;;;;;5026303;28;20202;-75
2023/06/29 07:55:50;;;;;;;7.45;4.55;;;25.20;99.90;;;;;;5014188;28;20193;-76
2023/06/29 07:58:16;;;;;;;10.18;6.55;;;25.30;99.90;;;;;;5029109;28;20212;-75
2023/06/29 08:00:42;;;;;;;35.25;22.17;;;25.30;99.90;;;;;;5021438;28;20255;-75
2023/06/29 08:03:08;;;;;;;12.18;9.13;;;25.20;99.90;;;;;;5025961;28;20618;-75
2023/06/29 08:05:33;;;;;;;27.10;18.55;;;25.30;99.90;;;;;;5020330;28;20240;-75
2023/06/29 08:07:59;;;;;;;13.02;8.25;;;25.30;99.90;;;;;;5023366;28;20200;-76
2023/06/29 08:10:25;;;;;;;12.05;7.80;;;25.40;99.90;;;;;;5020581;28;20283;-76
2023/06/29 08:12:51;;;;;;;21.52;14.27;;;25.30;99.90;;;;;;5017934;28;20215;-75
2023/06/29 08:15:16;;;;;;;15.65;9.43;;;25.40;99.90;;;;;;5020691;28;20783;-75
2023/06/29 08:17:42;;;;;;;17.67;13.52;;;25.40;99.90;;;;;;5023777;28;20216;-76
2023/06/29 08:20:12;;;;;;;8.77;5.95;;;25.10;99.90;;;;;;5026313;28;20544;-75
2023/06/29 08:22:38;;;;;;;6.25;4.07;;;25.10;99.90;;;;;;5020633;28;20756;-77
2023/06/29 08:25:04;;;;;;;14.48;6.55;;;25.30;99.90;;;;;;5020450;28;20720;-74
2023/06/29 08:27:30;;;;;;;5.18;2.80;;;25.40;99.90;;;;;;5024725;28;20208;-75
2023/06/29 08:29:56;;;;;;;6.47;4.18;;;25.40;99.90;;;;;;5017836;28;20204;-76
2023/06/29 08:32:21;;;;;;;10.55;7.70;;;25.50;99.90;;;;;;5018430;28;20654;-75
2023/06/29 08:34:47;;;;;;;13.65;8.55;;;25.50;99.90;;;;;;5022685;28;20213;-76
2023/06/29 08:37:13;;;;;;;11.73;8.10;;;25.50;99.90;;;;;;5025373;28;20334;-75
2023/06/29 08:39:38;;;;;;;14.55;10.75;;;25.50;99.90;;;;;;5019366;28;20703;-74
2023/06/29 08:42:04;;;;;;;7.00;4.75;;;25.70;99.90;;;;;;5024810;28;20242;-73
2023/06/29 08:44:30;;;;;;;10.43;6.55;;;25.70;99.90;;;;;;5022564;28;20204;-74
2023/06/29 08:47:00;;;;;;;3.80;2.65;;;25.70;99.90;;;;;;5020513;28;20219;-75
2023/06/29 08:49:27;;;;;;;4.25;2.28;;;25.70;99.90;;;;;;5022549;28;20224;-75
2023/06/29 08:51:58;;;;;;;3.22;2.00;;;25.70;99.90;;;;;;5019951;28;20609;-75
2023/06/29 08:54:26;;;;;;;6.68;2.17;;;25.60;99.90;;;;;;5020179;28;20262;-75
2023/06/29 08:56:51;;;;;;;7.28;3.83;;;25.40;99.90;;;;;;5021043;28;20215;-77
2023/06/29 08:59:18;;;;;;;6.05;2.65;;;25.40;99.90;;;;;;5026126;28;20184;-77
2023/06/29 09:01:45;;;;;;;3.20;2.05;;;25.50;99.90;;;;;;5024203;28;20201;-77
2023/06/29 09:04:11;;;;;;;13.30;9.55;;;25.60;99.90;;;;;;5028047;28;20592;-75
2023/06/29 09:06:40;;;;;;;8.75;5.63;;;25.60;99.90;;;;;;5025953;28;20255;-76
2023/06/29 09:09:06;;;;;;;21.92;15.65;;;25.50;99.90;;;;;;5032581;28;20224;-77
2023/06/29 09:11:35;;;;;;;5.63;3.47;;;25.50;99.90;;;;;;5024628;28;20774;-73
2023/06/29 09:14:06;;;;;;;16.20;10.82;;;25.50;99.90;;;;;;5022235;28;20185;-77
2023/06/29 09:16:34;;;;;;;4.63;3.05;;;25.40;99.90;;;;;;5025691;28;20204;-74
2023/06/29 09:19:03;;;;;;;2.90;1.60;;;25.40;99.90;;;;;;5023619;28;20209;-75
2023/06/29 09:21:29;;;;;;;1.65;1.45;;;25.40;99.90;;;;;;5026620;28;20212;-75
2023/06/29 09:23:59;;;;;;;4.85;2.40;;;25.30;99.90;;;;;;5024383;28;20205;-76
2023/06/29 09:26:28;;;;;;;4.00;1.73;;;25.30;99.90;;;;;;5025440;28;20227;-75
2023/06/29 09:29:00;;;;;;;3.58;1.98;;;25.40;99.90;;;;;;5027381;28;20194;-74
2023/06/29 09:31:32;;;;;;;2.72;2.20;;;25.60;99.90;;;;;;5023907;28;20204;-75
2023/06/29 09:34:16;;;;;;;8.73;4.80;;;25.60;99.90;;;;;;5029519;28;20207;-75
2023/06/29 09:36:42;;;;;;;3.03;2.63;;;25.90;99.90;;;;;;5032927;28;20259;-74
2023/06/29 09:39:09;;;;;;;9.27;5.93;;;26.20;99.90;;;;;;5025598;28;20208;-73
2023/06/29 09:41:54;;;;;;;14.98;8.35;;;26.40;99.90;;;;;;5017322;28;20180;-75
2023/06/29 09:44:22;;;;;;;6.88;3.78;;;26.40;99.90;;;;;;5023252;28;20282;-74
2023/06/29 09:46:51;;;;;;;6.13;4.82;;;26.40;99.90;;;;;;5026048;28;20583;-74
2023/06/29 09:49:20;;;;;;;5.13;3.00;;;26.40;99.90;;;;;;5020525;28;20220;-75
2023/06/29 09:51:48;;;;;;;4.05;2.35;;;26.30;99.90;;;;;;5023761;28;20284;-74
2023/06/29 09:54:18;;;;;;;7.38;4.80;;;26.30;99.90;;;;;;5029536;28;20204;-75
2023/06/29 09:56:45;;;;;;;5.13;3.22;;;26.20;99.90;;;;;;5017232;28;20201;-73
2023/06/29 09:59:11;;;;;;;5.75;3.80;;;26.30;99.90;;;;;;5025658;28;20189;-75
2023/06/29 10:01:43;;;;;;;4.10;2.80;;;26.50;99.90;;;;;;5022235;28;20204;-76
2023/06/29 10:04:09;;;;;;;25.35;18.27;;;26.30;99.90;;;;;;5023191;28;20624;-78
2023/06/29 10:06:41;;;;;;;26.52;20.17;;;26.30;99.90;;;;;;5022146;28;20279;-78
2023/06/29 10:09:08;;;;;;;12.63;6.72;;;26.40;99.90;;;;;;5021752;28;20257;-75
2023/06/29 10:11:36;;;;;;;7.93;5.35;;;26.80;99.90;;;;;;5022718;28;20708;-75
2023/06/29 10:14:04;;;;;;;10.13;6.82;;;26.90;99.90;;;;;;5028364;28;20227;-75
2023/06/29 10:16:34;;;;;;;7.20;4.25;;;27.00;99.90;;;;;;5022777;28;20223;-76
2023/06/29 10:19:20;;;;;;;12.82;9.73;;;27.50;99.90;;;;;;5022663;28;20247;-75
2023/06/29 10:21:53;;;;;;;12.32;7.22;;;28.00;99.90;;;;;;5018889;28;20735;-78
2023/06/29 10:24:22;;;;;;;4.60;2.50;;;28.20;99.90;;;;;;5024136;28;20771;-74
2023/06/29 10:26:49;;;;;;;5.90;2.55;;;28.50;99.90;;;;;;5017835;28;20274;-77
2023/06/29 10:29:14;;;;;;;9.90;6.32;;;28.80;99.90;;;;;;5025295;28;20181;-75
2023/06/29 10:31:49;;;;;;;6.88;5.20;;;29.10;99.90;;;;;;5025092;28;20266;-76
2023/06/29 10:34:15;;;;;;;11.32;8.77;;;29.40;99.90;;;;;;5020151;28;20204;-75
2023/06/29 10:36:49;;;;;;;3.75;3.05;;;29.30;99.90;;;;;;5024800;28;20638;-75
2023/06/29 10:39:56;;;;;;;4.55;3.88;;;29.10;99.90;;;;;;5022724;28;20201;-75
2023/06/29 10:42:22;;;;;;;4.47;3.42;;;29.20;99.90;;;;;;4934346;29;20211;-75
2023/06/29 10:44:47;;;;;;;6.68;3.40;;;28.70;99.90;;;;;;4955532;28;20864;-75
2023/06/29 10:47:36;;;;;;;5.95;2.70;;;28.60;99.90;;;;;;4981239;28;20735;-75
2023/06/29 10:50:11;;;;;;;8.20;5.10;;;28.50;99.90;;;;;;5022772;28;20208;-74
2023/06/29 10:52:38;;;;;;;12.80;6.13;;;28.60;99.90;;;;;;5020117;28;20223;-75
2023/06/29 10:55:17;;;;;;;5.85;4.38;;;28.80;99.90;;;;;;5022620;28;20201;-74
2023/06/29 10:57:53;;;;;;;15.32;10.68;;;29.00;99.90;;;;;;5024746;28;20559;-75
2023/06/29 11:00:19;;;;;;;9.18;6.53;;;28.80;99.90;;;;;;5021394;28;20200;-75
2023/06/29 11:02:48;;;;;;;3.28;2.67;;;28.90;99.90;;;;;;5018941;28;20231;-74
2023/06/29 11:05:14;;;;;;;7.13;4.10;;;28.90;99.90;;;;;;5023087;28;20208;-74
2023/06/29 11:07:42;;;;;;;3.42;2.80;;;28.80;99.90;;;;;;5022732;28;20644;-74
2023/06/29 11:10:09;;;;;;;5.28;3.65;;;29.10;99.90;;;;;;5027771;28;20239;-75
2023/06/29 11:12:38;;;;;;;14.52;8.30;;;28.70;99.90;;;;;;5023002;28;20207;-75
2023/06/29 11:15:15;;;;;;;8.75;5.47;;;28.80;99.90;;;;;;5007122;28;20204;-72
2023/06/29 11:17:45;;;;;;;22.05;14.10;;;28.80;99.90;;;;;;5026017;28;20300;-75
2023/06/29 11:20:15;;;;;;;8.63;6.90;;;28.90;99.90;;;;;;5024480;28;20181;-74
2023/06/29 11:22:42;;;;;;;5.18;3.95;;;28.90;99.90;;;;;;5021708;28;20250;-75
2023/06/29 11:25:12;;;;;;;4.97;4.25;;;28.80;99.90;;;;;;5024629;28;20215;-76
2023/06/29 11:27:37;;;;;;;9.55;5.43;;;28.60;99.90;;;;;;5052253;23;20224;-75
2023/06/29 11:30:09;;;;;;;3.88;2.90;;;28.60;99.90;;;;;;5031348;28;20262;-75
2023/06/29 11:32:35;;;;;;;7.35;4.18;;;28.60;99.90;;;;;;5030286;28;20188;-76
2023/06/29 11:35:03;;;;;;;6.97;2.95;;;28.90;99.90;;;;;;5032701;28;20171;-76
2023/06/29 11:37:29;;;;;;;2.70;2.50;;;29.00;99.90;;;;;;5032930;28;20239;-75
2023/06/29 11:39:55;;;;;;;8.00;3.75;;;29.10;99.90;;;;;;5028810;28;20204;-75
2023/06/29 11:42:23;;;;;;;4.35;2.55;;;29.10;99.90;;;;;;5030400;28;20338;-76
2023/06/29 11:44:59;;;;;;;5.53;3.00;;;28.90;99.90;;;;;;5035102;28;20221;-75
2023/06/29 11:47:24;;;;;;;5.20;2.78;;;29.00;99.90;;;;;;5037278;28;20416;-75
2023/06/29 11:49:50;;;;;;;7.65;4.57;;;28.70;99.90;;;;;;5034322;28;20233;-76
2023/06/29 11:52:16;;;;;;;3.42;2.65;;;28.50;99.90;;;;;;5027630;28;20211;-76
2023/06/29 11:54:42;;;;;;;5.53;2.65;;;28.70;99.90;;;;;;5026695;28;20204;-74
2023/06/29 11:57:08;;;;;;;4.28;3.20;;;28.70;99.90;;;;;;5035502;28;20207;-75
2023/06/29 11:59:38;;;;;;;3.60;2.65;;;28.60;99.90;;;;;;5027537;28;20175;-75
2023/06/29 12:02:04;;;;;;;6.18;3.17;;;28.40;99.90;;;;;;5035500;28;20175;-75
2023/06/29 12:04:29;;;;;;;6.47;3.53;;;28.50;99.90;;;;;;5031621;28;20200;-76
2023/06/29 12:06:56;;;;;;;2.97;2.50;;;28.60;99.90;;;;;;5030032;28;20262;-76
2023/06/29 12:09:32;;;;;;;4.30;2.65;;;28.20;99.90;;;;;;5028409;28;20308;-76
2023/06/29 12:12:04;;;;;;;4.90;2.90;;;28.10;99.90;;;;;;5022933;28;20235;-77
2023/06/29 12:14:32;;;;;;;5.20;4.18;;;28.40;99.90;;;;;;5028790;28;20161;-76
2023/06/29 12:17:00;;;;;;;7.32;5.05;;;28.50;99.90;;;;;;5029349;28;20200;-75
2023/06/29 12:19:36;;;;;;;5.95;4.60;;;28.40;99.90;;;;;;5027682;28;20847;-76
2023/06/29 12:22:05;;;;;;;5.45;3.60;;;28.40;99.90;;;;;;5028517;28;20595;-76
2023/06/29 12:24:30;;;;;;;7.75;5.38;;;28.50;99.90;;;;;;5021806;28;20204;-76
2023/06/29 12:26:56;;;;;;;3.42;3.13;;;28.60;99.90;;;;;;5025922;28;20222;-76
2023/06/29 12:29:22;;;;;;;3.13;2.83;;;28.80;99.90;;;;;;5033426;28;20230;-76
2023/06/29 12:31:47;;;;;;;4.63;2.75;;;28.60;99.90;;;;;;5030696;28;20215;-76
2023/06/29 12:34:13;;;;;;;5.35;3.00;;;28.50;99.90;;;;;;5033845;28;20585;-75
2023/06/29 12:36:38;;;;;;;5.05;3.10;;;28.70;99.90;;;;;;5035645;28;20204;-76
2023/06/29 12:39:04;;;;;;;5.05;3.00;;;28.90;99.90;;;;;;5033669;28;20212;-75
2023/06/29 12:41:30;;;;;;;6.68;5.47;;;28.70;99.90;;;;;;5033626;28;20180;-76
2023/06/29 12:43:55;;;;;;;6.20;4.65;;;28.70;99.90;;;;;;5033764;28;20180;-75
2023/06/29 12:46:23;;;;;;;11.07;7.60;;;28.70;99.90;;;;;;5027447;28;20212;-75